Stations météo

réclame
Mon MeteoGroup
Villafranca, Espagne (8241): Température de l'air & dewpoint: 15.02.2018 16:00:00 - 21.02.2018 16:00:00 (CET)Villafranca, Espagne (8241): Vitesse du vent & gusts: 15.02.2018 16:00:00 - 21.02.2018 16:00:00 (CET)Villafranca, Espagne (8241): Direction du vent: 15.02.2018 16:00:00 - 21.02.2018 16:00:00 (CET)Villafranca, Espagne (8241): visibility: 15.02.2018 16:00:00 - 21.02.2018 16:00:00 (CET)Villafranca, Espagne (8241): Ensoleillement: 15.02.2018 16:00:00 - 21.02.2018 16:00:00 (CET)Villafranca, Espagne (8241): Quantités de précipitations: 15.02.2018 16:00:00 - 21.02.2018 16:00:00 (CET)
Date & Time tt [°C] td [°C] ff [km/h] ff [knt] fx [km/h] fx [knt] dd vv [km] sd [min] rr [mm]
21.02.2018 16:00:00 - - - - - - - - - -
21.02.2018 15:00:00 6,8 -3,9 29 16 46 25 NW 20 53 0,0
21.02.2018 14:00:00 6,9 -3,6 24 13 46 25 NNW 20 56 0,0
21.02.2018 13:00:00 5,5 -3,6 27 15 52 28 NW 20 60 -
21.02.2018 12:00:00 4,5 -4,2 33 18 54 29 NW 20 60 0,0
21.02.2018 11:00:00 2,9 -3,6 33 18 53 29 NW 20 60 0,0
21.02.2018 10:00:00 2,2 -4,5 38 20 63 34 NW 20 60 0,0
21.02.2018 09:00:00 1,7 -3,9 40 22 66 35 NW 20 49 0,0
21.02.2018 08:00:00 1,3 -3,6 47 26 81 44 NW 20 0 0,0
21.02.2018 07:00:00 2,5 -2,2 40 22 72 39 NW 20 0 -
21.02.2018 06:00:00 2,8 -2,2 37 20 61 33 NW 20 0 0,0
21.02.2018 05:00:00 3,3 -1,4 38 20 69 37 NW 20 0 0,0
21.02.2018 04:00:00 3,4 -2,0 32 17 59 32 NW 20 0 0,0
21.02.2018 03:00:00 2,9 -2,2 29 16 61 33 NW 20 0 0,0
21.02.2018 02:00:00 2,7 -2,2 44 24 68 37 NW 20 0 0,0
21.02.2018 01:00:00 2,4 -2,0 32 17 51 28 NW 20 0 -
21.02.2018 00:00:00 2,4 -2,2 33 18 55 30 NW 20 0 0,0
20.02.2018 23:00:00 2,8 -2,0 37 20 61 33 NW 20 0 0,0
20.02.2018 22:00:00 3,4 -1,4 39 21 63 34 NW 20 0 0,0
20.02.2018 21:00:00 3,6 -1,4 33 18 71 38 NW 20 0 0,0
20.02.2018 20:00:00 4,2 -1,7 41 22 68 37 NW 20 0 0,0
20.02.2018 19:00:00 4,7 -1,2 34 18 61 33 NW 20 1 -
20.02.2018 18:00:00 5,6 -0,3 42 23 71 39 NW 20 2 0,0
20.02.2018 17:00:00 6,0 0,4 51 28 74 40 NW 20 1 0,0
20.02.2018 16:00:00 7,3 0,4 42 23 74 40 NW 20 8 0,0
20.02.2018 15:00:00 7,6 0,4 48 26 75 41 NW 20 5 0,0
20.02.2018 14:00:00 8,6 0,2 48 26 79 42 NW 20 13 0,0
20.02.2018 13:00:00 7,4 0,2 46 25 74 40 NW 20 0 -
20.02.2018 12:00:00 7,5 0,2 45 24 74 40 NW 20 33 0,0
20.02.2018 11:00:00 7,6 1,1 41 22 66 36 NW 20 32 0,0
20.02.2018 10:00:00 6,2 1,1 38 20 66 35 NW 20 1 0,0
20.02.2018 09:00:00 5,9 1,7 43 23 64 35 NW 20 5 0,0
20.02.2018 08:00:00 5,3 1,9 36 20 61 33 NW 20 0 0,0
20.02.2018 07:00:00 5,0 2,1 38 20 62 33 NW 20 0 -
20.02.2018 06:00:00 5,5 1,7 32 17 61 33 NW 20 0 0,0
20.02.2018 05:00:00 5,4 1,9 36 20 58 31 NW 20 0 0,0
20.02.2018 04:00:00 5,7 1,3 31 17 53 28 NW 20 0 0,0
20.02.2018 03:00:00 5,6 1,1 27 15 50 27 NW 20 0 0,0
20.02.2018 02:00:00 5,5 1,3 28 15 46 25 NW 20 0 0,0
20.02.2018 01:00:00 5,6 1,3 21 11 39 21 NW 20 0 -
20.02.2018 00:00:00 6,0 1,3 18 10 43 23 NW 20 0 0,0
19.02.2018 23:00:00 5,8 1,5 29 16 48 26 NW 20 0 0,0
19.02.2018 22:00:00 5,9 1,5 26 14 41 22 NW 20 0 0,0
19.02.2018 21:00:00 6,2 1,7 21 12 37 20 NW 20 0 0,0
19.02.2018 20:00:00 6,4 1,7 17 9 38 21 NW 20 0 0,0
19.02.2018 19:00:00 - - - - - - - - - -
19.02.2018 18:00:00 7,2 1,7 21 12 37 20 NW 20 6 0,0
19.02.2018 17:00:00 7,7 1,9 20 11 36 19 NW 20 0 0,0
19.02.2018 16:00:00 8,7 1,3 27 15 41 22 NW 20 16 0,0
19.02.2018 15:00:00 8,0 1,5 25 13 40 21 NW 20 6 0,0
19.02.2018 14:00:00 8,3 1,3 23 12 44 24 WNW 20 26 0,0
19.02.2018 13:00:00 8,8 1,5 26 14 49 27 NW 20 55 -
19.02.2018 12:00:00 - - - - - - - - - -
19.02.2018 11:00:00 5,7 1,1 34 18 49 26 NW 20 11 0,0
19.02.2018 10:00:00 4,6 0,6 30 16 49 27 NW 20 0 0,0
19.02.2018 09:00:00 4,2 0,4 27 15 46 25 NW 20 6 0,0
19.02.2018 08:00:00 3,7 0,4 29 15 47 25 NW 20 0 0,0
19.02.2018 07:00:00 3,5 0,2 29 16 46 25 NW 20 0 -
19.02.2018 06:00:00 3,5 -0,3 32 18 50 27 NW 20 0 0,0
19.02.2018 05:00:00 3,5 0,0 29 16 49 26 NW 20 0 0,0
19.02.2018 04:00:00 3,7 0,2 31 17 46 25 NW 20 0 0,0
19.02.2018 03:00:00 3,7 0,4 27 14 44 24 NW 20 0 0,0
19.02.2018 02:00:00 3,7 0,6 22 12 33 18 NW 20 0 0,0
19.02.2018 01:00:00 3,7 1,3 20 11 30 16 NW 20 0 -
19.02.2018 00:00:00 3,8 1,3 18 10 34 19 NNW 20 0 0,0
18.02.2018 23:00:00 - - - - - - - - - -
18.02.2018 22:00:00 - - - - - - - - - -
18.02.2018 21:00:00 4,4 0,4 21 12 34 18 NW 20 0 0,0
18.02.2018 20:00:00 3,9 -1,0 16 9 35 19 NW 20 0 0,0
18.02.2018 19:00:00 4,5 -1,7 20 11 31 17 NNW 20 2 -
18.02.2018 18:00:00 6,2 -3,0 16 8 33 18 NNW 20 33 0,0
18.02.2018 17:00:00 8,1 -2,5 22 12 39 21 NNW 20 60 0,0
18.02.2018 16:00:00 9,1 -2,2 23 12 36 19 N 20 60 0,0
18.02.2018 15:00:00 9,3 -2,5 18 10 32 17 NNW 20 60 0,0
18.02.2018 14:00:00 9,0 -2,2 16 9 31 17 NNW 20 60 0,0
18.02.2018 13:00:00 7,8 -2,5 18 10 32 18 NW 20 60 -
18.02.2018 12:00:00 6,1 -2,2 21 11 37 20 WNW 20 60 0,0
18.02.2018 11:00:00 4,5 -2,0 22 12 33 18 NW 20 60 0,0
18.02.2018 10:00:00 2,8 -2,2 22 12 35 19 NNW 20 60 0,0
18.02.2018 09:00:00 1,0 -3,0 15 8 27 15 NNW 20 46 0,0
18.02.2018 08:00:00 -0,8 -3,9 18 10 29 15 NW 20 0 0,0
18.02.2018 07:00:00 -0,6 -4,5 15 8 29 15 WNW 20 0 -
18.02.2018 06:00:00 -0,3 -4,5 15 8 29 16 NNW 20 0 0,0
18.02.2018 05:00:00 0,1 -4,5 16 9 33 18 NW 20 0 0,0
18.02.2018 04:00:00 - - - - - - - - - -
18.02.2018 03:00:00 0,7 -4,2 15 8 24 13 NNW 20 0 0,0
18.02.2018 02:00:00 0,8 -3,0 13 7 23 12 NW 20 0 0,0
18.02.2018 01:00:00 1,0 -3,9 13 7 24 13 NW 20 0 -
18.02.2018 00:00:00 2,4 -4,5 19 10 31 17 NW 20 0 0,0
17.02.2018 23:00:00 3,2 -4,2 23 13 41 22 NW 20 0 0,0
17.02.2018 22:00:00 3,6 -2,5 27 15 41 22 NW 20 0 0,0
17.02.2018 21:00:00 4,2 -3,0 28 15 41 22 NW 20 0 0,0
17.02.2018 20:00:00 4,6 -2,0 25 14 42 23 NW 20 0 0,0
17.02.2018 19:00:00 5,3 -0,3 26 14 46 25 NW 20 11 -
17.02.2018 18:00:00 7,0 0,4 26 14 44 24 NW 20 53 0,0
17.02.2018 17:00:00 8,3 1,3 26 14 48 26 NW 20 21 0,0
17.02.2018 16:00:00 8,5 2,3 26 14 44 24 NW 20 38 0,0
17.02.2018 15:00:00 8,0 2,9 27 14 40 22 NW 20 16 0,0
17.02.2018 14:00:00 7,7 3,6 23 12 41 22 NNW 20 1 0,0
17.02.2018 13:00:00 8,0 5,0 23 13 37 20 NNW 15 8 -
17.02.2018 12:00:00 10,2 5,1 23 12 36 19 NW 20 14 0,0
17.02.2018 11:00:00 9,8 5,5 24 13 36 19 NW 20 38 0,0
17.02.2018 10:00:00 9,3 5,5 24 13 37 20 NW 20 60 0,0
17.02.2018 09:00:00 7,9 4,8 16 9 24 13 NW 20 17 0,0
17.02.2018 08:00:00 6,1 3,2 13 7 21 11 NW 20 0 0,0
17.02.2018 07:00:00 5,9 2,9 10 5 21 11 NW 20 0 -
17.02.2018 06:00:00 5,0 2,7 12 6 16 9 NW 20 0 0,0
17.02.2018 05:00:00 4,9 2,3 10 5 13 7 NW 20 0 0,0
17.02.2018 04:00:00 5,6 2,9 8 5 13 7 NNW 20 0 0,0
17.02.2018 03:00:00 6,4 3,4 5 3 12 6 NW 20 0 0,0
17.02.2018 02:00:00 5,6 2,7 3 2 8 4 WNW 20 0 0,0
17.02.2018 01:00:00 6,5 2,9 2 1 14 7 WNW 20 0 -
17.02.2018 00:00:00 7,0 3,2 7 4 11 6 E 20 0 0,0
16.02.2018 23:00:00 6,7 3,2 3 2 15 8 NW 19 0 0,0
16.02.2018 22:00:00 6,4 3,8 4 2 7 4 E 17 0 0,0
16.02.2018 21:00:00 8,2 5,0 5 3 11 6 ESE 19 0 0,0
16.02.2018 20:00:00 9,2 5,1 6 4 16 9 ESE 20 0 0,0
16.02.2018 19:00:00 10,2 5,6 10 5 21 12 ESE 20 0 -
16.02.2018 18:00:00 11,8 5,1 11 6 20 11 ESE 20 8 0,0
16.02.2018 17:00:00 12,4 5,1 9 5 23 13 ESE 20 1 0,0
16.02.2018 16:00:00 13,5 4,6 12 6 22 12 E 20 32 0,0
16.02.2018 15:00:00 14,1 5,5 12 6 24 13 E 20 14 0,0
16.02.2018 14:00:00 14,4 5,1 12 7 22 12 E 20 28 0,0
16.02.2018 13:00:00 14,0 5,3 9 5 20 11 ESE 20 28 -
16.02.2018 12:00:00 12,7 5,3 6 4 12 6 ESE 20 13 0,0
16.02.2018 11:00:00 10,9 4,8 2 1 6 3 S 20 19 0,0
16.02.2018 10:00:00 7,4 4,1 5 3 8 4 NW 20 0 0,0
16.02.2018 09:00:00 5,3 3,2 6 3 10 6 NW 20 0 0,0
16.02.2018 08:00:00 4,4 2,3 8 4 9 5 NW 20 0 0,0
16.02.2018 07:00:00 4,8 2,5 6 4 11 6 NW 20 0 -
16.02.2018 06:00:00 5,0 2,7 8 4 10 6 WNW 20 0 0,0
16.02.2018 05:00:00 4,6 2,7 8 4 11 6 NW 20 0 0,0
16.02.2018 04:00:00 4,6 2,5 5 3 8 5 NW 20 0 0,0
16.02.2018 03:00:00 5,1 2,5 4 2 8 4 WNW 20 0 0,0
16.02.2018 02:00:00 5,9 2,9 5 3 12 7 NW 20 0 0,0
16.02.2018 01:00:00 6,3 3,0 9 5 12 6 NW 20 0 -
16.02.2018 00:00:00 6,7 3,2 9 5 11 6 NW 20 0 0,0
15.02.2018 23:00:00 6,8 3,2 8 4 10 5 NW 20 0 0,0
15.02.2018 22:00:00 7,1 3,4 5 3 8 5 NW 20 0 0,0
15.02.2018 21:00:00 7,7 3,0 5 3 8 4 WNW 20 0 0,0
15.02.2018 20:00:00 9,4 3,6 4 2 8 5 NW 20 0 0,0
15.02.2018 19:00:00 11,2 3,9 6 3 15 8 ESE 20 0 -
15.02.2018 18:00:00 13,1 3,9 8 5 19 10 ESE 20 45 0,0
15.02.2018 17:00:00 - - - - - - - - - -
15.02.2018 16:00:00 - - - - - - - - - -

tt = Température de l'air
td = dewpoint
ff = Vitesse du vent
fx = gusts
dd = Direction du vent
vv = visibility
sd = Ensoleillement
rr = Quantités de précipitations

stations d'obs. à proximité